Time;durP1;ratioP1;P1;durP2;ratioP2;P2;SDS_P1;SDS_P2;PMS_P1;PMS_P2;Temp;Humidity;BMP_temperature;BMP_pressure;BME280_temperature;BME280_humidity;BME280_pressure;Samples;Min_cycle;Max_cycle;Signal;HPM_P1;HPM_P2
2022/04/28 00:00:09;;;;;;;41.17;21.92;;;25.60;99.90;;;;;;5079426;28;20111;-63
2022/04/28 00:02:36;;;;;;;37.72;19.75;;;25.60;99.90;;;;;;5082644;28;20472;-63
2022/04/28 00:05:05;;;;;;;33.38;20.20;;;25.60;99.90;;;;;;5084066;28;20036;-63
2022/04/28 00:07:32;;;;;;;35.15;21.30;;;25.60;99.90;;;;;;5083091;28;20354;-63
2022/04/28 00:09:59;;;;;;;38.22;20.88;;;25.70;99.90;;;;;;5079751;28;20027;-63
2022/04/28 00:12:26;;;;;;;34.03;21.52;;;25.70;99.90;;;;;;5078203;28;20449;-64
2022/04/28 00:14:54;;;;;;;40.80;22.02;;;25.70;99.90;;;;;;5082685;28;20079;-63
2022/04/28 00:17:20;;;;;;;37.78;19.95;;;25.70;99.90;;;;;;5083982;28;20405;-63
2022/04/28 00:19:47;;;;;;;36.15;20.45;;;25.70;99.90;;;;;;5082134;28;20021;-63
2022/04/28 00:22:16;;;;;;;35.50;20.25;;;25.70;99.90;;;;;;5080165;28;20062;-63
2022/04/28 00:24:43;;;;;;;38.40;18.08;;;25.80;99.90;;;;;;5082242;28;20036;-62
2022/04/28 00:27:10;;;;;;;42.25;20.13;;;25.90;99.90;;;;;;5079845;28;20025;-63
2022/04/28 00:29:37;;;;;;;31.50;16.83;;;26.00;99.90;;;;;;5078928;28;20098;-63
2022/04/28 00:32:03;;;;;;;27.77;17.48;;;26.00;99.90;;;;;;5082424;28;20020;-63
2022/04/28 00:34:30;;;;;;;30.02;15.77;;;26.00;99.90;;;;;;5076652;28;20119;-63
2022/04/28 00:36:57;;;;;;;26.70;16.38;;;26.00;99.90;;;;;;5082712;28;20028;-65
2022/04/28 00:39:24;;;;;;;37.28;16.30;;;26.10;99.90;;;;;;5082570;28;20023;-62
2022/04/28 00:41:50;;;;;;;31.00;15.95;;;26.10;99.90;;;;;;5080864;28;20145;-62
2022/04/28 00:44:17;;;;;;;35.22;17.83;;;26.10;99.90;;;;;;5077291;28;20016;-62
2022/04/28 00:46:44;;;;;;;28.08;15.27;;;26.20;99.90;;;;;;5080012;28;20059;-63
2022/04/28 00:51:41;;;;;;;30.67;18.33;;;26.30;99.90;;;;;;5081698;28;20016;-63
2022/04/28 00:54:08;;;;;;;32.95;19.55;;;26.50;99.90;;;;;;5083963;28;20024;-63
2022/04/28 00:56:35;;;;;;;32.88;18.65;;;26.50;99.90;;;;;;5084674;28;20048;-62
2022/04/28 00:59:03;;;;;;;28.63;13.75;;;26.50;99.90;;;;;;5086036;28;20024;-62
2022/04/28 01:01:30;;;;;;;27.85;13.10;;;26.50;99.90;;;;;;5086524;28;20075;-63
2022/04/28 01:03:57;;;;;;;25.63;15.38;;;26.50;99.90;;;;;;5083289;28;20077;-63
2022/04/28 01:06:24;;;;;;;28.55;13.02;;;26.50;99.90;;;;;;5085803;28;20029;-62
2022/04/28 01:08:51;;;;;;;27.55;13.77;;;26.60;99.90;;;;;;5085042;28;20342;-63
2022/04/28 01:11:18;;;;;;;21.48;12.02;;;26.60;99.90;;;;;;5084137;28;20028;-63
2022/04/28 01:13:46;;;;;;;21.80;12.98;;;26.60;99.90;;;;;;5085273;28;20016;-64
2022/04/28 01:16:13;;;;;;;24.05;11.98;;;26.70;99.90;;;;;;5085948;28;20036;-63
2022/04/28 01:18:40;;;;;;;22.42;12.02;;;26.70;99.90;;;;;;5082005;28;20017;-64
2022/04/28 01:21:08;;;;;;;21.85;12.07;;;26.80;99.90;;;;;;5069030;28;20028;-64
2022/04/28 01:23:37;;;;;;;26.45;11.50;;;26.80;99.90;;;;;;5055913;28;20029;-64
2022/04/28 01:26:04;;;;;;;21.50;11.23;;;26.90;99.90;;;;;;5055663;28;20029;-64
2022/04/28 01:28:32;;;;;;;22.77;13.00;;;27.00;99.90;;;;;;5067369;28;20041;-63
2022/04/28 01:31:07;;;;;;;26.00;13.13;;;27.00;99.90;;;;;;5076431;28;20035;-63
2022/04/28 01:33:34;;;;;;;15.38;7.63;;;27.10;99.90;;;;;;5078542;28;20374;-64
2022/04/28 01:36:00;;;;;;;15.23;7.43;;;27.20;99.90;;;;;;5075371;28;20024;-63
2022/04/28 01:38:27;;;;;;;25.08;8.18;;;27.30;99.90;;;;;;5076222;28;20036;-64
2022/04/28 01:40:54;;;;;;;17.55;7.10;;;27.30;99.90;;;;;;5080807;28;20032;-63
2022/04/28 01:43:20;;;;;;;8.48;5.97;;;27.30;99.90;;;;;;5077241;28;20032;-63
2022/04/28 01:45:47;;;;;;;17.13;5.90;;;27.40;99.90;;;;;;5081990;28;20021;-63
2022/04/28 01:48:14;;;;;;;10.85;5.55;;;27.50;99.90;;;;;;5083462;28;20036;-63
2022/04/28 01:50:41;;;;;;;10.27;6.38;;;27.50;99.90;;;;;;5076815;28;20082;-63
2022/04/28 01:55:37;;;;;;;11.13;5.80;;;27.70;99.90;;;;;;5069902;28;20151;-63
2022/04/28 01:58:04;;;;;;;10.65;6.13;;;27.70;99.90;;;;;;5077550;28;20032;-64
2022/04/28 02:00:32;;;;;;;10.52;6.97;;;27.80;99.90;;;;;;5078353;28;20075;-64
2022/04/28 02:02:58;;;;;;;10.57;6.20;;;27.90;99.90;;;;;;5083374;28;20135;-64
2022/04/28 02:05:26;;;;;;;9.93;6.03;;;27.90;99.90;;;;;;5084611;28;20036;-64
2022/04/28 02:07:52;;;;;;;8.98;5.53;;;28.00;99.90;;;;;;5083607;28;20028;-64
2022/04/28 02:10:19;;;;;;;20.23;8.32;;;28.00;99.90;;;;;;5084575;28;20433;-64
2022/04/28 02:12:46;;;;;;;13.48;7.28;;;28.20;99.90;;;;;;5076597;28;20029;-63
2022/04/28 02:15:12;;;;;;;14.65;6.15;;;28.30;99.90;;;;;;5082339;28;20115;-64
2022/04/28 02:17:40;;;;;;;9.15;6.82;;;28.30;99.90;;;;;;5082185;28;20078;-64
2022/04/28 02:20:09;;;;;;;15.23;6.78;;;28.30;99.90;;;;;;5080081;28;20525;-64
2022/04/28 02:22:36;;;;;;;13.93;7.28;;;28.40;99.90;;;;;;5084220;28;20434;-64
2022/04/28 02:25:06;;;;;;;16.85;10.40;;;28.40;99.90;;;;;;5074727;28;20085;-64
2022/04/28 02:27:33;;;;;;;14.57;8.48;;;28.40;99.90;;;;;;5080437;28;20040;-63
2022/04/28 02:30:00;;;;;;;12.27;8.35;;;28.50;99.90;;;;;;5084300;28;20027;-63
2022/04/28 02:33:08;;;;;;;17.40;8.93;;;28.60;99.90;;;;;;5080503;28;20107;-62
2022/04/28 02:35:13;;;;;;;14.48;8.15;;;28.70;99.90;;;;;;5081646;28;20074;-63
2022/04/28 02:37:39;;;;;;;15.00;7.63;;;28.70;99.90;;;;;;5077016;28;20041;-63
2022/04/28 02:40:07;;;;;;;15.60;9.20;;;28.80;99.90;;;;;;5086825;28;20485;-63
2022/04/28 02:42:34;;;;;;;13.45;8.88;;;28.80;99.90;;;;;;5064517;28;20102;-63
2022/04/28 02:45:00;;;;;;;11.55;7.70;;;28.90;99.90;;;;;;5070628;28;20051;-63
2022/04/28 02:47:27;;;;;;;14.20;7.97;;;29.00;99.90;;;;;;5068940;28;20039;-63
2022/04/28 02:49:54;;;;;;;12.95;9.05;;;29.00;99.90;;;;;;5062529;28;20388;-64
2022/04/28 02:52:21;;;;;;;14.00;9.13;;;29.10;99.90;;;;;;5056240;28;20112;-63
2022/04/28 02:54:47;;;;;;;14.23;9.45;;;29.20;99.90;;;;;;5068705;28;20055;-64
2022/04/28 02:57:14;;;;;;;16.58;10.60;;;29.20;99.90;;;;;;5071573;22;20497;-63
2022/04/28 02:59:41;;;;;;;12.90;8.93;;;29.20;99.90;;;;;;5112918;28;20039;-64
2022/04/28 03:02:07;;;;;;;11.15;8.25;;;29.20;99.90;;;;;;5108613;28;20028;-64
2022/04/28 03:04:34;;;;;;;13.18;9.40;;;29.30;99.90;;;;;;5114660;28;20059;-63
2022/04/28 03:12:17;;;;;;;14.77;11.32;;;29.50;99.90;;;;;;5103747;28;20031;-65
2022/04/28 03:14:44;;;;;;;19.80;12.40;;;29.50;99.90;;;;;;5091052;28;20028;-66
2022/04/28 03:17:10;;;;;;;17.02;13.10;;;29.70;99.90;;;;;;5091532;28;20114;-64
2022/04/28 03:19:37;;;;;;;17.58;15.25;;;29.90;99.90;;;;;;5092969;28;20016;-65
2022/04/28 03:22:04;;;;;;;14.20;12.60;;;29.90;99.90;;;;;;5093098;28;20031;-64
2022/04/28 03:24:30;;;;;;;15.18;11.70;;;29.90;99.90;;;;;;5090327;28;20545;-64
2022/04/28 03:26:57;;;;;;;15.80;11.45;;;30.00;99.90;;;;;;5090167;28;20036;-64
2022/04/28 03:29:24;;;;;;;14.88;12.35;;;30.10;99.90;;;;;;5081600;28;20484;-64
2022/04/28 03:31:50;;;;;;;16.92;11.70;;;30.20;99.90;;;;;;5093146;28;20032;-63
2022/04/28 03:34:19;;;;;;;15.13;11.60;;;30.10;99.90;;;;;;5094211;28;20059;-63
2022/04/28 03:36:52;;;;;;;13.95;12.43;;;30.20;99.90;;;;;;5091672;28;20381;-63
2022/04/28 03:39:19;;;;;;;21.83;13.50;;;30.30;99.90;;;;;;5091646;28;20020;-63
2022/04/28 03:41:46;;;;;;;14.52;11.90;;;30.30;99.90;;;;;;5084323;28;20025;-64
2022/04/28 03:44:13;;;;;;;16.60;12.48;;;30.40;99.90;;;;;;5083872;28;20087;-63
2022/04/28 03:46:40;;;;;;;14.23;11.80;;;30.60;99.90;;;;;;5091269;28;20047;-64
2022/04/28 03:49:06;;;;;;;13.20;11.70;;;30.60;99.90;;;;;;5095932;28;20106;-64
2022/04/28 03:51:33;;;;;;;18.25;11.90;;;30.60;99.90;;;;;;5092464;28;20441;-65
2022/04/28 03:54:00;;;;;;;14.73;12.85;;;30.60;99.90;;;;;;5080921;28;20029;-65
2022/04/28 03:56:31;;;;;;;16.98;12.50;;;30.60;99.90;;;;;;5077274;28;20145;-64
2022/04/28 03:58:59;;;;;;;13.80;11.90;;;30.60;99.90;;;;;;5083759;28;20051;-66
2022/04/28 04:01:26;;;;;;;15.95;12.23;;;30.80;99.90;;;;;;5084225;28;20040;-66
2022/04/28 04:03:52;;;;;;;13.48;12.02;;;30.90;99.90;;;;;;5081307;28;20067;-68
2022/04/28 04:06:19;;;;;;;13.57;11.80;;;30.80;99.90;;;;;;5082985;28;20028;-64
2022/04/28 04:08:46;;;;;;;16.35;12.68;;;30.80;99.90;;;;;;5081154;28;20036;-65
2022/04/28 04:11:13;;;;;;;16.52;11.93;;;30.90;99.90;;;;;;5084315;28;20035;-65
2022/04/28 04:13:40;;;;;;;15.02;11.65;;;31.10;99.90;;;;;;5085077;28;20036;-63
2022/04/28 04:16:07;;;;;;;14.98;11.73;;;31.10;99.90;;;;;;5085216;28;20033;-64
2022/04/28 04:18:33;;;;;;;14.32;10.98;;;31.20;99.90;;;;;;5082078;28;20063;-65
2022/04/28 04:21:00;;;;;;;16.20;11.75;;;31.20;99.90;;;;;;5081719;28;20036;-62
2022/04/28 04:23:27;;;;;;;16.17;12.32;;;31.20;99.90;;;;;;5083116;28;20032;-64
2022/04/28 04:25:53;;;;;;;16.40;12.93;;;31.30;99.90;;;;;;5085171;28;20292;-64
2022/04/28 04:28:20;;;;;;;16.75;11.43;;;31.40;99.90;;;;;;5080034;28;20028;-65
2022/04/28 04:33:25;;;;;;;17.80;12.43;;;31.40;99.90;;;;;;5089366;28;20028;-64
2022/04/28 04:35:52;;;;;;;18.38;11.43;;;31.30;99.90;;;;;;5086982;28;20078;-64
2022/04/28 04:38:18;;;;;;;16.33;11.85;;;31.20;99.90;;;;;;5084693;28;20059;-65
2022/04/28 04:40:45;;;;;;;16.48;13.02;;;31.20;99.90;;;;;;5083186;28;20021;-66
2022/04/28 04:43:13;;;;;;;18.90;13.85;;;31.20;99.90;;;;;;5088757;28;20268;-65
2022/04/28 04:45:42;;;;;;;18.70;12.20;;;31.40;99.90;;;;;;5087671;28;20031;-66
2022/04/28 04:48:10;;;;;;;14.50;11.85;;;31.50;99.90;;;;;;5086743;28;20032;-65
2022/04/28 04:50:38;;;;;;;17.40;11.75;;;31.60;99.90;;;;;;5090333;28;20035;-64
2022/04/28 04:53:05;;;;;;;17.23;13.13;;;31.70;99.90;;;;;;5087460;28;20053;-67
2022/04/28 04:55:42;;;;;;;17.73;12.57;;;31.90;99.90;;;;;;5083749;28;20500;-66
2022/04/28 04:58:09;;;;;;;17.33;12.10;;;32.00;99.90;;;;;;5084934;28;20074;-65
2022/04/28 05:00:35;;;;;;;15.23;12.98;;;32.00;99.90;;;;;;5084474;28;20078;-64
2022/04/28 05:03:03;;;;;;;16.00;13.65;;;32.00;99.90;;;;;;5088939;28;20044;-63
2022/04/28 05:05:29;;;;;;;14.45;11.68;;;32.10;99.90;;;;;;5091525;28;20484;-64
2022/04/28 05:07:57;;;;;;;13.32;11.93;;;32.30;99.90;;;;;;5078403;28;20033;-64
2022/04/28 05:10:24;;;;;;;18.27;12.43;;;32.30;99.90;;;;;;5093873;28;20043;-65
2022/04/28 05:12:50;;;;;;;14.15;10.88;;;32.20;99.90;;;;;;5092414;28;20020;-65
2022/04/28 05:15:18;;;;;;;13.90;9.93;;;32.30;99.40;;;;;;5086608;28;20039;-63
2022/04/28 05:17:44;;;;;;;19.25;11.63;;;32.50;99.20;;;;;;5089520;28;20090;-64
2022/04/28 05:20:13;;;;;;;20.35;12.50;;;32.60;98.40;;;;;;5086713;28;20103;-65
2022/04/28 05:22:40;;;;;;;16.02;14.07;;;32.50;99.30;;;;;;5096281;28;20028;-65
2022/04/28 05:25:07;;;;;;;18.45;14.82;;;32.40;99.90;;;;;;5095478;28;20039;-66
2022/04/28 05:27:33;;;;;;;17.08;14.38;;;32.40;99.90;;;;;;5092705;28;20389;-65
2022/04/28 05:30:00;;;;;;;17.92;13.85;;;32.40;99.90;;;;;;5089345;28;20561;-65
2022/04/28 05:32:27;;;;;;;15.77;13.68;;;32.30;99.90;;;;;;5095062;28;20042;-64
2022/04/28 05:34:54;;;;;;;18.52;13.10;;;32.20;99.90;;;;;;5096307;28;20020;-64
2022/04/28 05:37:21;;;;;;;15.95;13.40;;;32.10;99.60;;;;;;5095346;28;20036;-66
2022/04/28 05:39:48;;;;;;;13.95;11.45;;;32.10;97.30;;;;;;5075263;22;20064;-63
2022/04/28 05:42:15;;;;;;;13.82;10.38;;;32.10;99.40;;;;;;5054683;28;20068;-64
2022/04/28 05:47:12;;;;;;;12.82;11.02;;;32.00;99.20;;;;;;5055463;28;20025;-64
2022/04/28 05:49:39;;;;;;;13.43;10.77;;;32.00;99.40;;;;;;5054843;28;20033;-65
2022/04/28 05:52:07;;;;;;;15.38;11.50;;;32.20;98.20;;;;;;5055527;28;20033;-65
2022/04/28 05:54:36;;;;;;;15.65;11.00;;;32.50;97.50;;;;;;5088770;22;20087;-64
2022/04/28 05:57:03;;;;;;;13.30;10.15;;;32.40;97.60;;;;;;5095159;28;20036;-63
2022/04/28 05:59:30;;;;;;;17.60;10.93;;;32.40;98.20;;;;;;5095133;28;20107;-63
2022/04/28 06:01:57;;;;;;;15.55;10.70;;;32.30;98.60;;;;;;5090577;28;20480;-64
2022/04/28 06:04:23;;;;;;;13.63;11.18;;;32.30;97.50;;;;;;5095851;28;20024;-64
2022/04/28 06:06:50;;;;;;;11.68;10.30;;;32.40;97.40;;;;;;5095725;28;20020;-63
2022/04/28 06:09:17;;;;;;;14.70;12.05;;;32.50;96.80;;;;;;5094516;28;20076;-64
2022/04/28 06:11:44;;;;;;;18.35;11.75;;;32.70;96.80;;;;;;5088442;28;20028;-65
2022/04/28 06:14:11;;;;;;;15.43;11.63;;;32.90;97.10;;;;;;5074304;28;20025;-62
2022/04/28 06:16:38;;;;;;;15.27;9.50;;;32.90;97.60;;;;;;5074734;28;20107;-65
2022/04/28 06:19:05;;;;;;;13.65;8.18;;;32.90;96.50;;;;;;5074602;28;20112;-64
2022/04/28 06:21:31;;;;;;;14.07;9.30;;;33.00;96.00;;;;;;5075127;28;20039;-64
2022/04/28 06:23:58;;;;;;;11.55;9.10;;;33.10;95.30;;;;;;5074033;28;20052;-64
2022/04/28 06:26:25;;;;;;;13.00;9.73;;;33.20;95.00;;;;;;5071103;28;20046;-63
2022/04/28 06:28:51;;;;;;;10.25;9.10;;;33.20;94.80;;;;;;5066444;28;20066;-64
2022/04/28 06:31:18;;;;;;;12.68;10.15;;;33.10;93.30;;;;;;5066865;28;20033;-63
2022/04/28 06:33:44;;;;;;;14.63;9.95;;;33.10;95.00;;;;;;5066809;28;20060;-64
2022/04/28 06:36:11;;;;;;;11.35;9.07;;;33.20;95.60;;;;;;5067142;28;20048;-64
2022/04/28 06:38:38;;;;;;;11.73;9.23;;;33.30;94.40;;;;;;5065191;28;20033;-64
2022/04/28 06:41:04;;;;;;;14.38;9.23;;;33.20;95.10;;;;;;5069723;28;20020;-63
2022/04/28 06:43:33;;;;;;;13.10;8.85;;;33.10;94.80;;;;;;5072889;28;20029;-64
2022/04/28 06:48:30;;;;;;;10.73;9.52;;;33.10;95.30;;;;;;5066939;28;20074;-64
2022/04/28 06:50:57;;;;;;;18.92;9.40;;;33.20;95.00;;;;;;5049781;28;20029;-63
2022/04/28 06:53:23;;;;;;;12.65;8.70;;;33.30;94.80;;;;;;5059647;28;20020;-63
2022/04/28 06:55:50;;;;;;;14.90;10.48;;;33.40;94.30;;;;;;5070032;28;20025;-64
2022/04/28 06:58:17;;;;;;;14.35;9.63;;;33.30;94.40;;;;;;5064437;28;20028;-64
2022/04/28 07:00:44;;;;;;;13.13;9.57;;;33.20;92.70;;;;;;5064426;28;20029;-63
2022/04/28 07:03:11;;;;;;;14.55;9.77;;;33.10;92.30;;;;;;5065559;28;20020;-63
2022/04/28 07:05:39;;;;;;;13.70;10.18;;;33.10;92.60;;;;;;5063840;28;20029;-63
2022/04/28 07:08:06;;;;;;;17.88;9.70;;;33.00;93.10;;;;;;5063270;28;20393;-66
2022/04/28 07:10:33;;;;;;;12.13;10.23;;;33.10;93.40;;;;;;5064352;28;20402;-65
2022/04/28 07:12:59;;;;;;;15.30;10.48;;;33.20;94.00;;;;;;5062711;28;20053;-65
2022/04/28 07:15:26;;;;;;;12.85;9.45;;;33.20;93.50;;;;;;5062893;28;20495;-62
2022/04/28 07:17:53;;;;;;;13.70;9.50;;;33.30;93.00;;;;;;5062675;28;20367;-65
2022/04/28 07:20:20;;;;;;;12.15;9.25;;;33.40;93.10;;;;;;5068148;28;20032;-65
2022/04/28 07:22:46;;;;;;;13.85;10.60;;;33.40;93.70;;;;;;5064430;28;20484;-64
2022/04/28 07:25:13;;;;;;;13.05;9.48;;;33.50;93.70;;;;;;5062955;28;20108;-65
2022/04/28 07:27:40;;;;;;;9.95;8.85;;;33.50;92.90;;;;;;5065925;28;20146;-64
2022/04/28 07:30:07;;;;;;;16.23;9.32;;;33.60;92.70;;;;;;5064526;28;20040;-62
2022/04/28 07:32:34;;;;;;;10.32;7.97;;;33.60;93.30;;;;;;5067174;28;20025;-63
2022/04/28 07:35:01;;;;;;;13.55;8.52;;;33.60;91.90;;;;;;5063340;28;20100;-63
2022/04/28 07:37:27;;;;;;;15.63;10.02;;;33.70;93.00;;;;;;5059988;28;20500;-62
2022/04/28 07:39:54;;;;;;;14.23;9.85;;;33.60;93.20;;;;;;5062866;28;20021;-62
2022/04/28 07:42:21;;;;;;;12.38;8.90;;;33.60;92.90;;;;;;5061831;28;20027;-63
2022/04/28 07:44:48;;;;;;;13.05;8.43;;;33.60;92.50;;;;;;5066690;28;20350;-62
2022/04/28 07:47:14;;;;;;;10.50;8.40;;;33.50;92.30;;;;;;5067380;28;20016;-61
2022/04/28 07:49:41;;;;;;;11.20;7.78;;;33.50;92.60;;;;;;5064765;28;20451;-63
2022/04/28 07:52:08;;;;;;;9.55;7.53;;;33.50;90.70;;;;;;5062515;28;20067;-62
2022/04/28 07:54:34;;;;;;;12.15;7.93;;;33.60;90.50;;;;;;5063358;28;20341;-62
2022/04/28 07:57:01;;;;;;;13.95;8.32;;;33.50;90.60;;;;;;5061432;28;20029;-63
2022/04/28 07:59:27;;;;;;;10.23;7.97;;;33.50;91.30;;;;;;5064896;28;20096;-63
2022/04/28 08:01:55;;;;;;;10.35;8.57;;;33.40;91.70;;;;;;5062352;28;20382;-63
2022/04/28 08:04:21;;;;;;;13.35;7.70;;;33.40;91.60;;;;;;5064467;28;20082;-64
2022/04/28 08:06:48;;;;;;;12.38;8.60;;;33.40;92.20;;;;;;5069191;28;20036;-63
2022/04/28 08:09:14;;;;;;;14.52;8.93;;;33.60;92.40;;;;;;5071623;28;20381;-63
2022/04/28 08:11:42;;;;;;;11.02;8.23;;;33.70;91.40;;;;;;5068483;28;20036;-63
2022/04/28 08:14:08;;;;;;;10.05;7.88;;;33.70;91.90;;;;;;5066417;28;20079;-63
2022/04/28 08:16:35;;;;;;;13.02;8.00;;;33.70;91.50;;;;;;5068468;28;20020;-63
2022/04/28 08:19:02;;;;;;;14.00;10.13;;;33.80;91.20;;;;;;5074519;28;20100;-63
2022/04/28 08:21:29;;;;;;;11.18;9.55;;;33.80;91.80;;;;;;5075939;28;20028;-65
2022/04/28 08:23:57;;;;;;;18.45;8.52;;;33.70;91.80;;;;;;5076835;28;20039;-63
2022/04/28 08:26:24;;;;;;;18.58;9.15;;;33.80;91.30;;;;;;5075344;28;20056;-64
2022/04/28 08:28:50;;;;;;;13.07;9.07;;;33.70;91.40;;;;;;5073023;28;20032;-63
2022/04/28 08:31:17;;;;;;;12.27;9.32;;;33.70;90.40;;;;;;5077095;28;20032;-64
2022/04/28 08:33:44;;;;;;;9.40;7.00;;;33.60;91.30;;;;;;5076204;28;20032;-63
2022/04/28 08:36:12;;;;;;;10.73;7.70;;;33.60;90.60;;;;;;5074522;28;20146;-63
2022/04/28 08:38:39;;;;;;;10.55;7.32;;;33.50;91.70;;;;;;5075768;28;20085;-64
2022/04/28 08:41:10;;;;;;;14.68;8.07;;;33.60;91.40;;;;;;5075707;28;20101;-64
2022/04/28 08:43:37;;;;;;;10.82;7.57;;;33.60;91.50;;;;;;5072089;28;20032;-65
2022/04/28 08:48:38;;;;;;;14.13;9.65;;;33.50;91.60;;;;;;5068649;28;20083;-63
2022/04/28 08:51:08;;;;;;;18.80;13.57;;;33.50;90.50;;;;;;5076512;28;20377;-62
2022/04/28 08:53:34;;;;;;;25.42;13.18;;;33.60;91.10;;;;;;5074578;28;20051;-64
2022/04/28 08:56:01;;;;;;;16.67;10.35;;;33.60;91.80;;;;;;5076591;28;20035;-63
2022/04/28 08:58:28;;;;;;;18.15;9.57;;;33.60;91.60;;;;;;5071787;28;20043;-63
2022/04/28 09:00:54;;;;;;;15.20;9.63;;;33.60;90.60;;;;;;5073780;28;20035;-64
2022/04/28 09:03:21;;;;;;;17.60;10.07;;;33.60;89.00;;;;;;5067460;28;20093;-62
2022/04/28 09:05:48;;;;;;;13.02;9.23;;;33.50;90.50;;;;;;5066998;28;20466;-62
2022/04/28 09:08:18;;;;;;;15.23;9.35;;;33.40;90.90;;;;;;5065180;28;20047;-62
2022/04/28 09:10:45;;;;;;;19.85;9.82;;;33.50;91.00;;;;;;5067275;28;20436;-62
2022/04/28 09:15:51;;;;;;;13.15;8.15;;;33.40;90.20;;;;;;5067316;28;20082;-62
2022/04/28 09:18:20;;;;;;;15.60;9.18;;;33.30;91.00;;;;;;5066525;28;20052;-62
2022/04/28 09:20:49;;;;;;;14.55;8.48;;;33.30;91.50;;;;;;5065094;28;20032;-62
2022/04/28 09:23:17;;;;;;;16.88;9.40;;;33.20;91.30;;;;;;5061623;28;20025;-63
2022/04/28 09:25:45;;;;;;;13.00;8.65;;;33.20;91.50;;;;;;5056299;28;20036;-63
2022/04/28 09:28:12;;;;;;;11.43;8.60;;;33.20;91.50;;;;;;5069577;28;20029;-64
2022/04/28 09:30:48;;;;;;;16.52;9.18;;;33.20;91.80;;;;;;5065365;28;20020;-63
2022/04/28 09:33:20;;;;;;;18.92;12.02;;;33.30;91.40;;;;;;5056812;28;20025;-62
2022/04/28 09:35:53;;;;;;;18.37;12.53;;;33.20;91.70;;;;;;5075275;28;20539;-63
2022/04/28 09:38:20;;;;;;;17.02;11.93;;;33.20;91.80;;;;;;5075098;28;20523;-63
2022/04/28 09:43:20;;;;;;;20.88;13.50;;;33.20;92.40;;;;;;5074373;28;20025;-63
2022/04/28 09:45:50;;;;;;;16.65;11.73;;;33.20;92.10;;;;;;5074509;28;20443;-62
2022/04/28 09:48:19;;;;;;;15.77;11.77;;;33.20;92.20;;;;;;5074598;28;20120;-62
2022/04/28 09:50:47;;;;;;;13.90;9.90;;;33.20;91.60;;;;;;5062867;28;20032;-62
2022/04/28 09:53:15;;;;;;;17.00;10.35;;;33.20;92.40;;;;;;5065393;28;20021;-61
2022/04/28 09:55:45;;;;;;;17.20;10.40;;;33.20;92.10;;;;;;5068867;28;20024;-62
2022/04/28 09:58:14;;;;;;;18.08;10.23;;;33.20;92.10;;;;;;5068289;28;20075;-60
2022/04/28 10:00:41;;;;;;;21.45;11.55;;;33.20;92.10;;;;;;5068317;28;20033;-62
2022/04/28 10:03:10;;;;;;;19.55;12.82;;;33.10;92.10;;;;;;5064723;28;20060;-61
2022/04/28 10:05:37;;;;;;;22.13;13.00;;;33.10;92.40;;;;;;5065473;28;20028;-61
2022/04/28 10:08:05;;;;;;;26.63;16.55;;;33.10;92.00;;;;;;5063077;28;20837;-61
2022/04/28 10:10:34;;;;;;;35.35;16.95;;;33.10;92.30;;;;;;5061114;28;20082;-62
2022/04/28 10:13:01;;;;;;;24.02;15.00;;;33.10;92.50;;;;;;5065601;28;20483;-61
2022/04/28 10:15:32;;;;;;;17.50;10.25;;;33.10;92.30;;;;;;5062088;28;20025;-62
2022/04/28 10:18:10;;;;;;;17.77;11.93;;;33.00;92.20;;;;;;5055833;28;20025;-62
2022/04/28 10:20:42;;;;;;;19.23;11.75;;;33.00;92.40;;;;;;5055830;28;20029;-62
2022/04/28 10:23:12;;;;;;;21.58;11.75;;;33.00;92.40;;;;;;5054754;28;20036;-62
2022/04/28 10:33:42;;;;;;;71.50;46.83;;;32.90;92.40;;;;;;5073496;28;20028;-62
2022/04/28 10:36:18;;;;;;;97.60;64.97;;;32.90;92.80;;;;;;5063107;28;20032;-61
2022/04/28 10:39:05;;;;;;;161.02;107.85;;;32.80;92.70;;;;;;5063240;28;20025;-62
2022/04/28 10:41:32;;;;;;;154.18;106.43;;;32.80;93.10;;;;;;5063103;28;20027;-61
2022/04/28 10:44:00;;;;;;;116.00;79.55;;;32.80;93.20;;;;;;5064420;28;20037;-61
2022/04/28 10:46:31;;;;;;;104.88;68.65;;;32.80;93.30;;;;;;5064313;28;20486;-62
2022/04/28 10:49:03;;;;;;;147.30;100.25;;;32.80;93.50;;;;;;5065125;28;20079;-62
2022/04/28 10:51:32;;;;;;;218.52;149.73;;;32.80;93.60;;;;;;5068805;28;20025;-62
2022/04/28 10:54:09;;;;;;;120.22;72.32;;;32.70;93.90;;;;;;5056123;28;20163;-63
2022/04/28 10:56:58;;;;;;;161.45;96.80;;;32.70;93.60;;;;;;5061699;28;20032;-62
2022/04/28 10:59:37;;;;;;;154.27;93.53;;;32.60;94.20;;;;;;5063468;28;20503;-64
2022/04/28 11:02:23;;;;;;;129.98;80.78;;;32.60;94.50;;;;;;5062153;28;20039;-62
2022/04/28 11:04:52;;;;;;;127.03;77.32;;;32.60;94.50;;;;;;5069501;28;20036;-61
2022/04/28 11:07:23;;;;;;;92.60;56.40;;;32.50;94.50;;;;;;5073595;28;20123;-62
2022/04/28 11:10:03;;;;;;;71.55;43.95;;;32.50;95.00;;;;;;5072839;28;20060;-61
2022/04/28 11:12:38;;;;;;;174.32;114.63;;;32.50;94.70;;;;;;5072823;28;20028;-62
2022/04/28 11:15:08;;;;;;;319.92;213.77;;;32.50;94.60;;;;;;5074542;28;20499;-62
2022/04/28 11:17:36;;;;;;;253.68;157.38;;;32.50;95.00;;;;;;5066016;28;20082;-61
2022/04/28 11:20:07;;;;;;;162.48;100.88;;;32.50;95.10;;;;;;5073820;28;20035;-62
2022/04/28 11:22:34;;;;;;;105.60;65.88;;;32.40;95.20;;;;;;5054059;28;20032;-62
2022/04/28 11:25:12;;;;;;;93.90;57.30;;;32.40;95.50;;;;;;5054072;28;20100;-62
2022/04/28 11:27:40;;;;;;;145.35;80.32;;;32.30;95.50;;;;;;5058028;28;20033;-64
2022/04/28 11:30:10;;;;;;;59.90;23.33;;;32.20;95.80;;;;;;5070533;28;20103;-61
2022/04/28 11:32:48;;;;;;;19.50;6.88;;;31.80;93.70;;;;;;5065833;28;20028;-65
2022/04/28 11:35:15;;;;;;;12.80;3.45;;;30.40;92.50;;;;;;5065489;28;20036;-64
2022/04/28 11:37:42;;;;;;;10.40;3.63;;;28.90;95.50;;;;;;5063222;28;20037;-64
2022/04/28 11:40:13;;;;;;;9.15;2.90;;;27.70;99.00;;;;;;5064033;28;20040;-65
2022/04/28 11:42:41;;;;;;;10.50;3.92;;;26.90;99.90;;;;;;5060762;28;20171;-63
2022/04/28 11:45:08;;;;;;;13.77;4.43;;;26.70;99.90;;;;;;5063915;28;20489;-62
2022/04/28 11:47:46;;;;;;;11.55;3.20;;;26.50;99.90;;;;;;5060064;28;20051;-63
2022/04/28 11:50:22;;;;;;;8.93;2.55;;;26.20;99.90;;;;;;5064832;28;20032;-63
2022/04/28 11:53:03;;;;;;;5.68;2.53;;;26.00;99.90;;;;;;5064606;28;20048;-64
2022/04/28 11:55:34;;;;;;;35.17;20.92;;;26.00;99.90;;;;;;5067319;28;20049;-64
2022/04/28 11:58:01;;;;;;;11.13;4.03;;;26.10;99.90;;;;;;5064377;28;20493;-65
2022/04/28 12:00:35;;;;;;;23.73;17.70;;;26.30;99.90;;;;;;5068609;28;20028;-62
2022/04/28 12:03:03;;;;;;;20.33;9.98;;;26.60;99.90;;;;;;5069284;28;20445;-61
2022/04/28 12:05:32;;;;;;;16.95;7.45;;;26.70;99.90;;;;;;5070515;28;20064;-64
2022/04/28 12:07:59;;;;;;;12.40;5.07;;;26.80;99.90;;;;;;5069874;28;20028;-63
2022/04/28 12:15:48;;;;;;;10.18;3.80;;;26.90;99.90;;;;;;5072908;28;20102;-63
2022/04/28 12:20:55;;;;;;;10.95;4.50;;;26.90;99.90;;;;;;5060479;28;20378;-66
2022/04/28 12:23:38;;;;;;;11.27;4.72;;;27.00;99.90;;;;;;5068258;28;20025;-64
2022/04/28 12:26:07;;;;;;;10.70;5.45;;;27.00;99.90;;;;;;5060021;28;20032;-63
2022/04/28 12:28:40;;;;;;;14.25;5.18;;;27.10;99.90;;;;;;5055636;28;20433;-64
2022/04/28 12:31:09;;;;;;;9.63;4.88;;;27.20;99.90;;;;;;5068496;28;20033;-65
2022/04/28 12:33:39;;;;;;;41.03;32.33;;;27.20;99.90;;;;;;5073537;28;20028;-64
2022/04/28 12:36:11;;;;;;;39.67;25.15;;;27.10;99.90;;;;;;5072482;28;20024;-63
2022/04/28 12:38:44;;;;;;;44.53;26.73;;;27.10;99.90;;;;;;5053722;28;20033;-64
2022/04/28 12:41:16;;;;;;;36.70;20.80;;;27.20;99.90;;;;;;5066797;28;20033;-64
2022/04/28 12:43:49;;;;;;;55.05;34.22;;;27.10;99.90;;;;;;5073486;28;20024;-64
2022/04/28 12:46:22;;;;;;;72.82;51.03;;;27.20;99.90;;;;;;5072463;28;20064;-63
2022/04/28 12:48:56;;;;;;;17.95;10.40;;;27.40;99.90;;;;;;5067158;28;20047;-64
2022/04/28 12:51:24;;;;;;;18.38;7.38;;;27.40;99.90;;;;;;5076267;28;20052;-64
2022/04/28 12:53:53;;;;;;;18.42;7.43;;;27.40;99.90;;;;;;5076385;28;20447;-64
2022/04/28 12:56:30;;;;;;;15.23;7.68;;;27.20;99.90;;;;;;5065727;28;20032;-63
2022/04/28 12:59:04;;;;;;;17.40;8.32;;;27.20;99.90;;;;;;5069735;28;20186;-64
2022/04/28 13:01:32;;;;;;;19.20;8.27;;;27.20;99.90;;;;;;5066838;28;20033;-63
2022/04/28 13:04:06;;;;;;;15.85;8.30;;;27.30;99.90;;;;;;5074940;28;20126;-63
2022/04/28 13:06:35;;;;;;;16.25;8.13;;;27.50;99.90;;;;;;5073833;28;20032;-63
2022/04/28 13:09:04;;;;;;;13.23;7.57;;;27.50;99.90;;;;;;5075380;28;20025;-62
2022/04/28 13:11:38;;;;;;;12.65;6.72;;;27.40;99.90;;;;;;5075296;28;20032;-64
2022/04/28 13:14:07;;;;;;;16.90;8.27;;;27.50;99.90;;;;;;5074379;28;20575;-62
2022/04/28 13:16:33;;;;;;;14.15;7.38;;;27.70;99.90;;;;;;5076077;28;20087;-64